sensor_id;sensor_type;location;lat;lon;timestamp;P1;durP1;ratioP1;P2;durP2;ratioP2
80836;SDS011;70251;60.008;30.404;2023-11-21T00:00:40;14.65;;;5.45;;
80836;SDS011;70251;60.008;30.404;2023-11-21T00:03:06;15.98;;;6.20;;
80836;SDS011;70251;60.008;30.404;2023-11-21T00:05:32;19.23;;;6.70;;
80836;SDS011;70251;60.008;30.404;2023-11-21T00:07:57;18.52;;;7.32;;
80836;SDS011;70251;60.008;30.404;2023-11-21T00:10:26;17.80;;;6.85;;
80836;SDS011;70251;60.008;30.404;2023-11-21T00:12:52;19.97;;;7.30;;
80836;SDS011;70251;60.008;30.404;2023-11-21T00:15:20;20.40;;;7.40;;
80836;SDS011;70251;60.008;30.404;2023-11-21T00:17:47;18.13;;;7.00;;
80836;SDS011;70251;60.008;30.404;2023-11-21T00:20:18;20.83;;;7.80;;
80836;SDS011;70251;60.008;30.404;2023-11-21T00:22:44;25.20;;;8.33;;
80836;SDS011;70251;60.008;30.404;2023-11-21T00:25:10;22.27;;;8.45;;
80836;SDS011;70251;60.008;30.404;2023-11-21T00:27:37;20.25;;;7.35;;
80836;SDS011;70251;60.008;30.404;2023-11-21T00:30:04;20.10;;;7.67;;
80836;SDS011;70251;60.008;30.404;2023-11-21T00:32:37;17.33;;;7.10;;
80836;SDS011;70251;60.008;30.404;2023-11-21T00:35:03;23.10;;;7.60;;
80836;SDS011;70251;60.008;30.404;2023-11-21T00:37:30;21.30;;;7.70;;
80836;SDS011;70251;60.008;30.404;2023-11-21T00:39:57;20.98;;;7.05;;
80836;SDS011;70251;60.008;30.404;2023-11-21T00:42:23;18.30;;;6.73;;
80836;SDS011;70251;60.008;30.404;2023-11-21T00:44:49;18.73;;;7.60;;
80836;SDS011;70251;60.008;30.404;2023-11-21T00:47:14;20.83;;;7.97;;
80836;SDS011;70251;60.008;30.404;2023-11-21T00:49:40;23.52;;;7.43;;
80836;SDS011;70251;60.008;30.404;2023-11-21T00:52:06;20.70;;;7.90;;
80836;SDS011;70251;60.008;30.404;2023-11-21T00:54:35;17.55;;;6.72;;
80836;SDS011;70251;60.008;30.404;2023-11-21T00:57:01;18.45;;;7.07;;
80836;SDS011;70251;60.008;30.404;2023-11-21T00:59:27;15.97;;;5.83;;
80836;SDS011;70251;60.008;30.404;2023-11-21T01:01:52;17.95;;;6.53;;
80836;SDS011;70251;60.008;30.404;2023-11-21T01:04:19;17.50;;;7.00;;
80836;SDS011;70251;60.008;30.404;2023-11-21T01:06:45;19.00;;;7.00;;
80836;SDS011;70251;60.008;30.404;2023-11-21T01:09:10;17.50;;;6.50;;
80836;SDS011;70251;60.008;30.404;2023-11-21T01:11:36;18.25;;;5.93;;
80836;SDS011;70251;60.008;30.404;2023-11-21T01:14:06;17.33;;;6.85;;
80836;SDS011;70251;60.008;30.404;2023-11-21T01:16:39;16.20;;;6.23;;
80836;SDS011;70251;60.008;30.404;2023-11-21T01:19:05;15.48;;;5.93;;
80836;SDS011;70251;60.008;30.404;2023-11-21T01:21:31;17.38;;;6.25;;
80836;SDS011;70251;60.008;30.404;2023-11-21T01:23:57;15.20;;;5.90;;
80836;SDS011;70251;60.008;30.404;2023-11-21T01:26:22;15.13;;;6.03;;
80836;SDS011;70251;60.008;30.404;2023-11-21T01:28:48;15.73;;;5.78;;
80836;SDS011;70251;60.008;30.404;2023-11-21T01:31:14;15.90;;;5.43;;
80836;SDS011;70251;60.008;30.404;2023-11-21T01:33:40;13.37;;;5.23;;
80836;SDS011;70251;60.008;30.404;2023-11-21T01:36:06;15.80;;;4.97;;
80836;SDS011;70251;60.008;30.404;2023-11-21T01:38:32;15.50;;;5.35;;
80836;SDS011;70251;60.008;30.404;2023-11-21T01:40:58;13.53;;;4.93;;
80836;SDS011;70251;60.008;30.404;2023-11-21T01:43:26;12.70;;;4.72;;
80836;SDS011;70251;60.008;30.404;2023-11-21T01:45:55;12.63;;;5.50;;
80836;SDS011;70251;60.008;30.404;2023-11-21T01:48:24;13.48;;;5.50;;
80836;SDS011;70251;60.008;30.404;2023-11-21T01:50:51;18.67;;;5.65;;
80836;SDS011;70251;60.008;30.404;2023-11-21T01:53:16;12.43;;;4.97;;
80836;SDS011;70251;60.008;30.404;2023-11-21T01:55:43;12.57;;;5.30;;
80836;SDS011;70251;60.008;30.404;2023-11-21T01:58:10;12.05;;;4.35;;
80836;SDS011;70251;60.008;30.404;2023-11-21T02:00:37;13.40;;;5.03;;
80836;SDS011;70251;60.008;30.404;2023-11-21T02:03:04;10.60;;;3.93;;
80836;SDS011;70251;60.008;30.404;2023-11-21T02:05:30;12.77;;;4.60;;
80836;SDS011;70251;60.008;30.404;2023-11-21T02:07:56;11.18;;;4.70;;
80836;SDS011;70251;60.008;30.404;2023-11-21T02:10:21;10.43;;;4.10;;
80836;SDS011;70251;60.008;30.404;2023-11-21T02:12:51;12.43;;;4.78;;
80836;SDS011;70251;60.008;30.404;2023-11-21T02:15:17;11.48;;;5.00;;
80836;SDS011;70251;60.008;30.404;2023-11-21T02:17:47;12.32;;;4.93;;
80836;SDS011;70251;60.008;30.404;2023-11-21T02:20:16;11.40;;;4.53;;
80836;SDS011;70251;60.008;30.404;2023-11-21T02:22:43;11.63;;;4.43;;
80836;SDS011;70251;60.008;30.404;2023-11-21T02:25:27;12.90;;;4.72;;
80836;SDS011;70251;60.008;30.404;2023-11-21T02:27:59;11.80;;;4.47;;
80836;SDS011;70251;60.008;30.404;2023-11-21T02:30:27;11.43;;;4.15;;
80836;SDS011;70251;60.008;30.404;2023-11-21T02:32:53;10.38;;;4.03;;
80836;SDS011;70251;60.008;30.404;2023-11-21T02:35:20;11.30;;;4.33;;
80836;SDS011;70251;60.008;30.404;2023-11-21T02:37:47;9.90;;;3.53;;
80836;SDS011;70251;60.008;30.404;2023-11-21T02:40:13;10.68;;;4.55;;
80836;SDS011;70251;60.008;30.404;2023-11-21T02:42:44;10.77;;;4.30;;
80836;SDS011;70251;60.008;30.404;2023-11-21T02:45:10;11.98;;;4.55;;
80836;SDS011;70251;60.008;30.404;2023-11-21T02:47:42;12.30;;;4.30;;
80836;SDS011;70251;60.008;30.404;2023-11-21T02:50:09;13.20;;;4.88;;
80836;SDS011;70251;60.008;30.404;2023-11-21T02:52:35;13.93;;;5.05;;
80836;SDS011;70251;60.008;30.404;2023-11-21T02:55:02;11.65;;;4.68;;
80836;SDS011;70251;60.008;30.404;2023-11-21T02:57:32;10.60;;;4.47;;
80836;SDS011;70251;60.008;30.404;2023-11-21T02:59:58;10.88;;;4.10;;
80836;SDS011;70251;60.008;30.404;2023-11-21T03:02:25;11.40;;;4.35;;
80836;SDS011;70251;60.008;30.404;2023-11-21T03:05:02;9.90;;;4.15;;
80836;SDS011;70251;60.008;30.404;2023-11-21T03:07:29;9.40;;;3.58;;
80836;SDS011;70251;60.008;30.404;2023-11-21T03:09:54;9.67;;;3.80;;
80836;SDS011;70251;60.008;30.404;2023-11-21T03:12:20;9.37;;;3.70;;
80836;SDS011;70251;60.008;30.404;2023-11-21T03:14:46;10.57;;;3.95;;
80836;SDS011;70251;60.008;30.404;2023-11-21T03:17:14;9.63;;;3.42;;
80836;SDS011;70251;60.008;30.404;2023-11-21T03:19:41;9.60;;;3.30;;
80836;SDS011;70251;60.008;30.404;2023-11-21T03:22:10;9.55;;;3.53;;
80836;SDS011;70251;60.008;30.404;2023-11-21T03:24:45;7.95;;;3.13;;
80836;SDS011;70251;60.008;30.404;2023-11-21T03:27:10;7.78;;;2.97;;
80836;SDS011;70251;60.008;30.404;2023-11-21T03:29:36;9.30;;;3.90;;
80836;SDS011;70251;60.008;30.404;2023-11-21T03:32:07;9.80;;;3.38;;
80836;SDS011;70251;60.008;30.404;2023-11-21T03:34:33;10.73;;;3.47;;
80836;SDS011;70251;60.008;30.404;2023-11-21T03:36:59;8.93;;;3.42;;
80836;SDS011;70251;60.008;30.404;2023-11-21T03:39:24;8.33;;;3.00;;
80836;SDS011;70251;60.008;30.404;2023-11-21T03:41:50;11.95;;;4.82;;
80836;SDS011;70251;60.008;30.404;2023-11-21T03:44:17;11.02;;;3.20;;
80836;SDS011;70251;60.008;30.404;2023-11-21T03:46:43;8.35;;;3.20;;
80836;SDS011;70251;60.008;30.404;2023-11-21T03:49:09;11.83;;;4.07;;
80836;SDS011;70251;60.008;30.404;2023-11-21T03:51:36;10.27;;;3.67;;
80836;SDS011;70251;60.008;30.404;2023-11-21T03:54:02;9.13;;;3.10;;
80836;SDS011;70251;60.008;30.404;2023-11-21T03:56:38;8.35;;;3.00;;
80836;SDS011;70251;60.008;30.404;2023-11-21T03:59:04;9.73;;;3.58;;
80836;SDS011;70251;60.008;30.404;2023-11-21T04:01:29;8.53;;;3.33;;
80836;SDS011;70251;60.008;30.404;2023-11-21T04:03:55;9.97;;;3.40;;
80836;SDS011;70251;60.008;30.404;2023-11-21T04:06:20;8.82;;;3.25;;
80836;SDS011;70251;60.008;30.404;2023-11-21T04:08:46;8.87;;;3.00;;
80836;SDS011;70251;60.008;30.404;2023-11-21T04:11:19;9.60;;;3.70;;
80836;SDS011;70251;60.008;30.404;2023-11-21T04:13:45;8.48;;;3.15;;
80836;SDS011;70251;60.008;30.404;2023-11-21T04:16:12;9.10;;;3.30;;
80836;SDS011;70251;60.008;30.404;2023-11-21T04:18:40;8.68;;;3.10;;
80836;SDS011;70251;60.008;30.404;2023-11-21T04:21:06;9.52;;;3.67;;
80836;SDS011;70251;60.008;30.404;2023-11-21T04:23:33;7.78;;;3.33;;
80836;SDS011;70251;60.008;30.404;2023-11-21T04:26:01;8.80;;;3.00;;
80836;SDS011;70251;60.008;30.404;2023-11-21T04:28:27;8.40;;;3.42;;
80836;SDS011;70251;60.008;30.404;2023-11-21T04:30:53;10.68;;;3.70;;
80836;SDS011;70251;60.008;30.404;2023-11-21T04:33:19;9.97;;;3.70;;
80836;SDS011;70251;60.008;30.404;2023-11-21T04:35:53;9.48;;;3.22;;
80836;SDS011;70251;60.008;30.404;2023-11-21T04:38:18;9.27;;;3.15;;
80836;SDS011;70251;60.008;30.404;2023-11-21T04:40:47;9.43;;;3.07;;
80836;SDS011;70251;60.008;30.404;2023-11-21T04:43:13;8.75;;;2.67;;
80836;SDS011;70251;60.008;30.404;2023-11-21T04:45:38;8.98;;;3.55;;
80836;SDS011;70251;60.008;30.404;2023-11-21T04:48:06;8.87;;;2.77;;
80836;SDS011;70251;60.008;30.404;2023-11-21T04:50:33;8.27;;;3.08;;
80836;SDS011;70251;60.008;30.404;2023-11-21T04:52:59;9.32;;;3.03;;
80836;SDS011;70251;60.008;30.404;2023-11-21T04:55:25;9.00;;;2.93;;
80836;SDS011;70251;60.008;30.404;2023-11-21T04:57:53;8.47;;;3.27;;
80836;SDS011;70251;60.008;30.404;2023-11-21T05:00:19;7.95;;;2.85;;
80836;SDS011;70251;60.008;30.404;2023-11-21T05:02:46;8.27;;;2.78;;
80836;SDS011;70251;60.008;30.404;2023-11-21T05:05:12;8.63;;;2.92;;
80836;SDS011;70251;60.008;30.404;2023-11-21T05:07:40;8.05;;;2.63;;
80836;SDS011;70251;60.008;30.404;2023-11-21T05:10:07;7.90;;;2.63;;
80836;SDS011;70251;60.008;30.404;2023-11-21T05:12:35;8.38;;;2.60;;
80836;SDS011;70251;60.008;30.404;2023-11-21T05:15:03;10.07;;;2.83;;
80836;SDS011;70251;60.008;30.404;2023-11-21T05:17:33;9.10;;;2.92;;
80836;SDS011;70251;60.008;30.404;2023-11-21T05:19:59;9.32;;;3.35;;
80836;SDS011;70251;60.008;30.404;2023-11-21T05:22:29;8.63;;;2.30;;
80836;SDS011;70251;60.008;30.404;2023-11-21T05:24:55;7.28;;;2.50;;
80836;SDS011;70251;60.008;30.404;2023-11-21T05:27:21;6.80;;;2.20;;
80836;SDS011;70251;60.008;30.404;2023-11-21T05:29:46;8.50;;;2.43;;
80836;SDS011;70251;60.008;30.404;2023-11-21T05:32:12;8.70;;;2.43;;
80836;SDS011;70251;60.008;30.404;2023-11-21T05:34:38;7.00;;;2.07;;
80836;SDS011;70251;60.008;30.404;2023-11-21T05:37:04;8.20;;;2.67;;
80836;SDS011;70251;60.008;30.404;2023-11-21T05:39:30;7.93;;;2.13;;
80836;SDS011;70251;60.008;30.404;2023-11-21T05:41:57;7.22;;;2.45;;
80836;SDS011;70251;60.008;30.404;2023-11-21T05:44:25;13.02;;;5.32;;
80836;SDS011;70251;60.008;30.404;2023-11-21T05:46:53;9.27;;;2.92;;
80836;SDS011;70251;60.008;30.404;2023-11-21T05:49:19;9.00;;;3.00;;
80836;SDS011;70251;60.008;30.404;2023-11-21T05:51:47;8.68;;;3.00;;
80836;SDS011;70251;60.008;30.404;2023-11-21T05:54:13;7.13;;;2.40;;
80836;SDS011;70251;60.008;30.404;2023-11-21T05:56:39;7.63;;;2.42;;
80836;SDS011;70251;60.008;30.404;2023-11-21T05:59:07;7.50;;;2.10;;
80836;SDS011;70251;60.008;30.404;2023-11-21T06:01:32;10.00;;;2.33;;
80836;SDS011;70251;60.008;30.404;2023-11-21T06:03:59;7.30;;;1.70;;
80836;SDS011;70251;60.008;30.404;2023-11-21T06:06:31;7.83;;;2.37;;
80836;SDS011;70251;60.008;30.404;2023-11-21T06:08:57;8.43;;;2.00;;
80836;SDS011;70251;60.008;30.404;2023-11-21T06:11:22;9.68;;;2.17;;
80836;SDS011;70251;60.008;30.404;2023-11-21T06:13:52;7.17;;;2.13;;
80836;SDS011;70251;60.008;30.404;2023-11-21T06:16:21;8.55;;;2.40;;
80836;SDS011;70251;60.008;30.404;2023-11-21T06:18:46;6.40;;;1.98;;
80836;SDS011;70251;60.008;30.404;2023-11-21T06:21:12;7.33;;;2.10;;
80836;SDS011;70251;60.008;30.404;2023-11-21T06:23:38;6.88;;;1.77;;
80836;SDS011;70251;60.008;30.404;2023-11-21T06:26:07;7.40;;;1.95;;
80836;SDS011;70251;60.008;30.404;2023-11-21T06:28:34;7.53;;;2.27;;
80836;SDS011;70251;60.008;30.404;2023-11-21T06:31:01;7.07;;;2.22;;
80836;SDS011;70251;60.008;30.404;2023-11-21T06:33:31;8.60;;;2.40;;
80836;SDS011;70251;60.008;30.404;2023-11-21T06:35:57;6.95;;;2.00;;
80836;SDS011;70251;60.008;30.404;2023-11-21T06:38:28;6.53;;;1.77;;
80836;SDS011;70251;60.008;30.404;2023-11-21T06:40:55;6.93;;;1.93;;
80836;SDS011;70251;60.008;30.404;2023-11-21T06:43:23;6.03;;;1.90;;
80836;SDS011;70251;60.008;30.404;2023-11-21T06:45:49;7.40;;;1.92;;
80836;SDS011;70251;60.008;30.404;2023-11-21T06:48:15;7.78;;;2.10;;
80836;SDS011;70251;60.008;30.404;2023-11-21T06:50:41;10.57;;;2.20;;
80836;SDS011;70251;60.008;30.404;2023-11-21T06:53:07;8.77;;;2.20;;
80836;SDS011;70251;60.008;30.404;2023-11-21T06:55:34;6.30;;;1.63;;
80836;SDS011;70251;60.008;30.404;2023-11-21T06:58:00;7.65;;;1.80;;
80836;SDS011;70251;60.008;30.404;2023-11-21T07:00:26;6.87;;;2.07;;
80836;SDS011;70251;60.008;30.404;2023-11-21T07:02:53;7.15;;;2.17;;
80836;SDS011;70251;60.008;30.404;2023-11-21T07:05:23;6.78;;;1.92;;
80836;SDS011;70251;60.008;30.404;2023-11-21T07:07:49;6.03;;;1.77;;
80836;SDS011;70251;60.008;30.404;2023-11-21T07:10:15;6.55;;;1.48;;
80836;SDS011;70251;60.008;30.404;2023-11-21T07:12:40;5.40;;;1.53;;
80836;SDS011;70251;60.008;30.404;2023-11-21T07:15:06;6.47;;;1.80;;
80836;SDS011;70251;60.008;30.404;2023-11-21T07:17:35;5.80;;;1.60;;
80836;SDS011;70251;60.008;30.404;2023-11-21T07:20:01;9.10;;;1.88;;
80836;SDS011;70251;60.008;30.404;2023-11-21T07:22:31;6.38;;;1.33;;
80836;SDS011;70251;60.008;30.404;2023-11-21T07:24:57;10.93;;;1.80;;
80836;SDS011;70251;60.008;30.404;2023-11-21T07:27:29;6.47;;;1.70;;
80836;SDS011;70251;60.008;30.404;2023-11-21T07:29:55;6.63;;;1.50;;
80836;SDS011;70251;60.008;30.404;2023-11-21T07:32:20;6.17;;;1.40;;
80836;SDS011;70251;60.008;30.404;2023-11-21T07:34:46;6.30;;;1.60;;
80836;SDS011;70251;60.008;30.404;2023-11-21T07:37:11;5.37;;;1.40;;
80836;SDS011;70251;60.008;30.404;2023-11-21T07:39:37;6.72;;;1.50;;
80836;SDS011;70251;60.008;30.404;2023-11-21T07:42:07;6.97;;;1.25;;
80836;SDS011;70251;60.008;30.404;2023-11-21T07:44:32;8.90;;;1.43;;
80836;SDS011;70251;60.008;30.404;2023-11-21T07:46:58;6.40;;;2.08;;
80836;SDS011;70251;60.008;30.404;2023-11-21T07:49:24;4.70;;;1.40;;
80836;SDS011;70251;60.008;30.404;2023-11-21T07:51:50;5.47;;;1.30;;
80836;SDS011;70251;60.008;30.404;2023-11-21T07:54:16;5.25;;;1.13;;
80836;SDS011;70251;60.008;30.404;2023-11-21T07:56:42;4.53;;;1.30;;
80836;SDS011;70251;60.008;30.404;2023-11-21T07:59:08;5.10;;;1.13;;
80836;SDS011;70251;60.008;30.404;2023-11-21T08:01:33;4.53;;;1.10;;
80836;SDS011;70251;60.008;30.404;2023-11-21T08:03:59;7.87;;;1.10;;
80836;SDS011;70251;60.008;30.404;2023-11-21T08:06:37;6.38;;;1.35;;
80836;SDS011;70251;60.008;30.404;2023-11-21T08:09:03;6.00;;;1.23;;
80836;SDS011;70251;60.008;30.404;2023-11-21T08:11:28;5.43;;;0.93;;
80836;SDS011;70251;60.008;30.404;2023-11-21T08:13:56;5.55;;;1.00;;
80836;SDS011;70251;60.008;30.404;2023-11-21T08:16:22;5.20;;;0.85;;
80836;SDS011;70251;60.008;30.404;2023-11-21T08:18:49;4.53;;;0.93;;
80836;SDS011;70251;60.008;30.404;2023-11-21T08:21:14;5.87;;;0.83;;
80836;SDS011;70251;60.008;30.404;2023-11-21T08:23:40;4.17;;;1.00;;
80836;SDS011;70251;60.008;30.404;2023-11-21T08:26:06;5.55;;;0.80;;
80836;SDS011;70251;60.008;30.404;2023-11-21T08:28:31;4.37;;;0.87;;
80836;SDS011;70251;60.008;30.404;2023-11-21T08:30:57;3.95;;;1.02;;
80836;SDS011;70251;60.008;30.404;2023-11-21T08:33:22;5.27;;;0.90;;
80836;SDS011;70251;60.008;30.404;2023-11-21T08:35:48;5.40;;;1.13;;
80836;SDS011;70251;60.008;30.404;2023-11-21T08:38:14;2.97;;;0.60;;
80836;SDS011;70251;60.008;30.404;2023-11-21T08:40:40;4.78;;;0.90;;
80836;SDS011;70251;60.008;30.404;2023-11-21T08:43:05;5.37;;;0.77;;
80836;SDS011;70251;60.008;30.404;2023-11-21T08:45:32;4.88;;;0.90;;
80836;SDS011;70251;60.008;30.404;2023-11-21T08:48:00;2.78;;;0.75;;
80836;SDS011;70251;60.008;30.404;2023-11-21T08:50:27;4.30;;;0.93;;
80836;SDS011;70251;60.008;30.404;2023-11-21T08:52:53;3.95;;;0.73;;
80836;SDS011;70251;60.008;30.404;2023-11-21T08:55:19;4.78;;;1.00;;
80836;SDS011;70251;60.008;30.404;2023-11-21T08:57:47;4.87;;;0.90;;
80836;SDS011;70251;60.008;30.404;2023-11-21T09:00:13;3.72;;;0.85;;
80836;SDS011;70251;60.008;30.404;2023-11-21T09:02:54;4.57;;;0.80;;
80836;SDS011;70251;60.008;30.404;2023-11-21T09:05:19;4.03;;;0.90;;
80836;SDS011;70251;60.008;30.404;2023-11-21T09:07:45;3.53;;;0.80;;
80836;SDS011;70251;60.008;30.404;2023-11-21T09:10:13;7.40;;;1.92;;
80836;SDS011;70251;60.008;30.404;2023-11-21T09:12:40;5.72;;;1.23;;
80836;SDS011;70251;60.008;30.404;2023-11-21T09:15:06;6.63;;;1.55;;
80836;SDS011;70251;60.008;30.404;2023-11-21T09:17:33;6.20;;;1.70;;
80836;SDS011;70251;60.008;30.404;2023-11-21T09:20:00;5.50;;;1.38;;
80836;SDS011;70251;60.008;30.404;2023-11-21T09:22:26;5.30;;;1.42;;
80836;SDS011;70251;60.008;30.404;2023-11-21T09:24:52;6.68;;;1.90;;
80836;SDS011;70251;60.008;30.404;2023-11-21T09:27:18;6.53;;;1.80;;
80836;SDS011;70251;60.008;30.404;2023-11-21T09:29:44;9.55;;;2.17;;
80836;SDS011;70251;60.008;30.404;2023-11-21T09:32:12;7.90;;;2.45;;
80836;SDS011;70251;60.008;30.404;2023-11-21T09:34:39;7.45;;;1.88;;
80836;SDS011;70251;60.008;30.404;2023-11-21T09:37:05;7.87;;;2.00;;
80836;SDS011;70251;60.008;30.404;2023-11-21T09:39:35;9.25;;;2.33;;
80836;SDS011;70251;60.008;30.404;2023-11-21T09:42:06;6.30;;;1.83;;
80836;SDS011;70251;60.008;30.404;2023-11-21T09:44:50;7.63;;;2.65;;
80836;SDS011;70251;60.008;30.404;2023-11-21T09:47:23;5.60;;;1.60;;
80836;SDS011;70251;60.008;30.404;2023-11-21T09:49:49;9.13;;;2.40;;
80836;SDS011;70251;60.008;30.404;2023-11-21T09:52:18;8.00;;;2.50;;
80836;SDS011;70251;60.008;30.404;2023-11-21T09:54:51;11.23;;;2.20;;
80836;SDS011;70251;60.008;30.404;2023-11-21T09:57:21;8.68;;;2.10;;
80836;SDS011;70251;60.008;30.404;2023-11-21T09:59:52;8.90;;;2.15;;
80836;SDS011;70251;60.008;30.404;2023-11-21T10:02:25;7.32;;;1.70;;
80836;SDS011;70251;60.008;30.404;2023-11-21T10:04:54;7.37;;;1.70;;
80836;SDS011;70251;60.008;30.404;2023-11-21T10:07:22;9.25;;;2.00;;
80836;SDS011;70251;60.008;30.404;2023-11-21T10:09:48;10.77;;;2.45;;
80836;SDS011;70251;60.008;30.404;2023-11-21T10:12:16;7.97;;;2.33;;
80836;SDS011;70251;60.008;30.404;2023-11-21T10:14:42;9.73;;;2.45;;
80836;SDS011;70251;60.008;30.404;2023-11-21T10:17:13;11.50;;;2.10;;
80836;SDS011;70251;60.008;30.404;2023-11-21T10:19:41;9.90;;;2.65;;
80836;SDS011;70251;60.008;30.404;2023-11-21T10:22:08;8.63;;;2.58;;
80836;SDS011;70251;60.008;30.404;2023-11-21T10:24:34;15.13;;;3.03;;
80836;SDS011;70251;60.008;30.404;2023-11-21T10:27:02;12.98;;;3.58;;
80836;SDS011;70251;60.008;30.404;2023-11-21T10:29:29;8.35;;;2.38;;
80836;SDS011;70251;60.008;30.404;2023-11-21T10:31:56;12.75;;;3.67;;
80836;SDS011;70251;60.008;30.404;2023-11-21T10:34:24;12.60;;;3.15;;
80836;SDS011;70251;60.008;30.404;2023-11-21T10:36:50;14.57;;;2.80;;
80836;SDS011;70251;60.008;30.404;2023-11-21T10:39:19;11.57;;;3.30;;
80836;SDS011;70251;60.008;30.404;2023-11-21T10:41:46;10.07;;;2.60;;
80836;SDS011;70251;60.008;30.404;2023-11-21T10:44:13;6.65;;;1.80;;
80836;SDS011;70251;60.008;30.404;2023-11-21T10:46:54;11.82;;;1.80;;
80836;SDS011;70251;60.008;30.404;2023-11-21T10:49:24;7.03;;;1.73;;
80836;SDS011;70251;60.008;30.404;2023-11-21T10:51:52;6.47;;;1.63;;
80836;SDS011;70251;60.008;30.404;2023-11-21T10:54:22;8.52;;;1.73;;
80836;SDS011;70251;60.008;30.404;2023-11-21T10:57:00;5.57;;;1.58;;
80836;SDS011;70251;60.008;30.404;2023-11-21T10:59:30;7.40;;;1.83;;
80836;SDS011;70251;60.008;30.404;2023-11-21T11:02:00;7.07;;;1.70;;
80836;SDS011;70251;60.008;30.404;2023-11-21T11:04:28;6.82;;;1.98;;
80836;SDS011;70251;60.008;30.404;2023-11-21T11:06:56;5.82;;;1.55;;
80836;SDS011;70251;60.008;30.404;2023-11-21T11:09:23;6.43;;;1.92;;
80836;SDS011;70251;60.008;30.404;2023-11-21T11:11:50;8.82;;;1.98;;
80836;SDS011;70251;60.008;30.404;2023-11-21T11:14:16;5.70;;;1.47;;
80836;SDS011;70251;60.008;30.404;2023-11-21T11:16:45;7.90;;;1.73;;
80836;SDS011;70251;60.008;30.404;2023-11-21T11:19:11;5.35;;;1.20;;
80836;SDS011;70251;60.008;30.404;2023-11-21T11:37:18;9.25;;;2.70;;
80836;SDS011;70251;60.008;30.404;2023-11-21T11:39:48;10.02;;;2.40;;
80836;SDS011;70251;60.008;30.404;2023-11-21T11:42:16;6.30;;;1.42;;
80836;SDS011;70251;60.008;30.404;2023-11-21T11:47:13;6.50;;;1.75;;
80836;SDS011;70251;60.008;30.404;2023-11-21T11:49:54;5.22;;;1.20;;
80836;SDS011;70251;60.008;30.404;2023-11-21T11:52:38;6.38;;;1.67;;
80836;SDS011;70251;60.008;30.404;2023-11-21T11:55:06;6.95;;;1.60;;
80836;SDS011;70251;60.008;30.404;2023-11-21T11:57:35;8.03;;;1.80;;
80836;SDS011;70251;60.008;30.404;2023-11-21T12:03:00;4.57;;;1.00;;
80836;SDS011;70251;60.008;30.404;2023-11-21T12:05:29;6.68;;;1.60;;
80836;SDS011;70251;60.008;30.404;2023-11-21T12:08:02;6.45;;;1.17;;
80836;SDS011;70251;60.008;30.404;2023-11-21T12:10:32;5.27;;;1.20;;
80836;SDS011;70251;60.008;30.404;2023-11-21T12:15:38;4.45;;;1.30;;
80836;SDS011;70251;60.008;30.404;2023-11-21T12:18:06;6.35;;;1.55;;
80836;SDS011;70251;60.008;30.404;2023-11-21T12:20:32;10.07;;;2.85;;
80836;SDS011;70251;60.008;30.404;2023-11-21T12:23:04;9.37;;;2.47;;
80836;SDS011;70251;60.008;30.404;2023-11-21T12:25:31;8.27;;;2.33;;
80836;SDS011;70251;60.008;30.404;2023-11-21T12:27:58;10.10;;;2.25;;
80836;SDS011;70251;60.008;30.404;2023-11-21T12:30:26;7.78;;;1.50;;
80836;SDS011;70251;60.008;30.404;2023-11-21T12:32:56;6.03;;;1.27;;
80836;SDS011;70251;60.008;30.404;2023-11-21T12:35:29;5.27;;;1.00;;
80836;SDS011;70251;60.008;30.404;2023-11-21T12:37:59;4.88;;;1.00;;
80836;SDS011;70251;60.008;30.404;2023-11-21T12:40:28;6.78;;;0.95;;
80836;SDS011;70251;60.008;30.404;2023-11-21T12:42:58;7.30;;;1.70;;
80836;SDS011;70251;60.008;30.404;2023-11-21T12:45:27;5.70;;;1.50;;
80836;SDS011;70251;60.008;30.404;2023-11-21T12:50:26;6.75;;;1.35;;
80836;SDS011;70251;60.008;30.404;2023-11-21T12:52:58;5.35;;;0.90;;
80836;SDS011;70251;60.008;30.404;2023-11-21T12:55:25;5.03;;;1.05;;
80836;SDS011;70251;60.008;30.404;2023-11-21T12:57:55;5.15;;;1.20;;
80836;SDS011;70251;60.008;30.404;2023-11-21T13:00:33;5.77;;;1.30;;
80836;SDS011;70251;60.008;30.404;2023-11-21T13:03:03;6.93;;;1.40;;
80836;SDS011;70251;60.008;30.404;2023-11-21T13:05:33;6.10;;;1.25;;
80836;SDS011;70251;60.008;30.404;2023-11-21T13:08:01;4.57;;;1.30;;
80836;SDS011;70251;60.008;30.404;2023-11-21T13:10:30;9.20;;;1.58;;
80836;SDS011;70251;60.008;30.404;2023-11-21T13:12:57;7.33;;;1.37;;
80836;SDS011;70251;60.008;30.404;2023-11-21T13:15:26;7.18;;;1.60;;
80836;SDS011;70251;60.008;30.404;2023-11-21T13:17:53;8.40;;;1.75;;
80836;SDS011;70251;60.008;30.404;2023-11-21T13:20:20;5.95;;;1.25;;
80836;SDS011;70251;60.008;30.404;2023-11-21T13:22:53;9.40;;;2.20;;
80836;SDS011;70251;60.008;30.404;2023-11-21T13:25:22;7.40;;;2.00;;
80836;SDS011;70251;60.008;30.404;2023-11-21T13:27:49;7.63;;;1.98;;
80836;SDS011;70251;60.008;30.404;2023-11-21T13:30:15;8.38;;;1.65;;
80836;SDS011;70251;60.008;30.404;2023-11-21T13:32:45;5.97;;;1.08;;
80836;SDS011;70251;60.008;30.404;2023-11-21T13:35:23;5.78;;;0.70;;
80836;SDS011;70251;60.008;30.404;2023-11-21T13:38:04;5.60;;;1.57;;
80836;SDS011;70251;60.008;30.404;2023-11-21T13:40:31;5.45;;;0.90;;
80836;SDS011;70251;60.008;30.404;2023-11-21T13:43:00;5.95;;;0.98;;
80836;SDS011;70251;60.008;30.404;2023-11-21T13:45:29;4.35;;;0.90;;
80836;SDS011;70251;60.008;30.404;2023-11-21T13:47:56;5.13;;;1.00;;
80836;SDS011;70251;60.008;30.404;2023-11-21T13:50:24;4.60;;;1.10;;
80836;SDS011;70251;60.008;30.404;2023-11-21T13:52:57;5.10;;;0.80;;
80836;SDS011;70251;60.008;30.404;2023-11-21T13:55:29;5.88;;;0.95;;
80836;SDS011;70251;60.008;30.404;2023-11-21T13:57:55;3.83;;;0.70;;
80836;SDS011;70251;60.008;30.404;2023-11-21T14:00:24;4.35;;;0.90;;
80836;SDS011;70251;60.008;30.404;2023-11-21T14:03:12;3.67;;;0.90;;
80836;SDS011;70251;60.008;30.404;2023-11-21T14:05:48;4.70;;;1.30;;
80836;SDS011;70251;60.008;30.404;2023-11-21T14:08:22;3.90;;;0.65;;
80836;SDS011;70251;60.008;30.404;2023-11-21T14:10:54;4.05;;;1.08;;
80836;SDS011;70251;60.008;30.404;2023-11-21T14:13:25;4.35;;;0.85;;
80836;SDS011;70251;60.008;30.404;2023-11-21T14:15:53;3.90;;;0.60;;
80836;SDS011;70251;60.008;30.404;2023-11-21T14:18:26;4.47;;;0.73;;
80836;SDS011;70251;60.008;30.404;2023-11-21T14:21:15;3.92;;;0.88;;
80836;SDS011;70251;60.008;30.404;2023-11-21T14:23:42;5.75;;;1.08;;
80836;SDS011;70251;60.008;30.404;2023-11-21T14:26:08;3.08;;;0.70;;
80836;SDS011;70251;60.008;30.404;2023-11-21T14:28:34;6.93;;;1.00;;
80836;SDS011;70251;60.008;30.404;2023-11-21T14:31:01;4.88;;;1.02;;
80836;SDS011;70251;60.008;30.404;2023-11-21T14:33:28;6.22;;;1.25;;
80836;SDS011;70251;60.008;30.404;2023-11-21T14:35:54;4.23;;;0.80;;
80836;SDS011;70251;60.008;30.404;2023-11-21T14:38:20;5.85;;;0.98;;
80836;SDS011;70251;60.008;30.404;2023-11-21T14:40:45;4.47;;;0.83;;
80836;SDS011;70251;60.008;30.404;2023-11-21T14:43:15;5.43;;;1.25;;
80836;SDS011;70251;60.008;30.404;2023-11-21T14:45:44;7.15;;;0.70;;
80836;SDS011;70251;60.008;30.404;2023-11-21T14:48:09;3.50;;;0.80;;
80836;SDS011;70251;60.008;30.404;2023-11-21T14:50:42;8.98;;;1.42;;
80836;SDS011;70251;60.008;30.404;2023-11-21T14:53:08;4.20;;;0.88;;
80836;SDS011;70251;60.008;30.404;2023-11-21T14:55:35;3.92;;;0.60;;
80836;SDS011;70251;60.008;30.404;2023-11-21T14:58:06;3.65;;;0.77;;
80836;SDS011;70251;60.008;30.404;2023-11-21T15:00:38;3.50;;;0.80;;